Terminal Aerodrome Forecast
Issued by NWS St Louis, MO

Home | Current Version | Previous Version | Text Only | Print | Product List | Glossary On
Versions: 1 2 3 4 5 6 7 8 9 10 11 12 13
000
FTUS43 KLSX 201126
TAFCOU
TAF
KCOU 201126Z 2012/2112 17007KT P6SM FEW250
     FM201800 17011KT P6SM FEW250
     FM210600 16010KT P6SM BKN200 WS015/19040KT=

USA.gov is the U.S. government's official web portal to all federal, state and local government web resources and services.